Time,TemperatureF,DewpointF,PressureIn,WindDirection,WindDirectionDegrees,WindSpeedMPH,WindSpeedGustMPH,Humidity,HourlyPrecipIn,Conditions,Clouds,dailyrainin,SoftwareType,DateUTC
2013-07-18 00:02:00,79.0,73.0,29.99,NNW,340,0.0,1.0,82,0.00,,,0.00,,2013-07-18 04:02:00,
2013-07-18 00:12:00,79.0,73.0,30.00,NNW,340,0.0,1.0,82,0.00,,,0.00,,2013-07-18 04:12:00,
2013-07-18 00:22:00,79.0,73.0,30.01,NNW,338,0.0,1.0,81,0.00,,,0.00,,2013-07-18 04:22:00,
2013-07-18 00:32:00,79.0,73.0,30.02,North,353,0.0,1.0,81,0.00,,,0.00,,2013-07-18 04:32:00,
2013-07-18 00:43:00,79.0,73.0,30.02,North,353,0.0,1.0,81,0.00,,,0.00,,2013-07-18 04:43:00,
2013-07-18 00:52:00,79.0,73.0,30.02,North,352,0.0,1.0,81,0.00,,,0.00,,2013-07-18 04:52:00,
2013-07-18 01:02:00,79.0,73.0,30.02,North,349,0.0,1.0,81,0.00,,,0.00,,2013-07-18 05:02:00,
2013-07-18 01:11:00,79.0,73.0,30.02,North,349,0.0,0.0,81,0.00,,,0.00,,2013-07-18 05:11:00,
2013-07-18 01:22:00,78.0,72.0,30.02,NNW,348,0.0,0.0,82,0.00,,,0.00,,2013-07-18 05:22:00,
2013-07-18 01:42:00,78.0,73.0,30.02,North,349,0.0,0.0,84,0.00,,,0.00,,2013-07-18 05:42:00,
2013-07-18 01:52:00,77.0,72.0,30.01,North,349,0.0,0.0,86,0.00,,,0.00,,2013-07-18 05:52:00,
2013-07-18 02:01:00,77.0,73.0,30.01,North,349,0.0,0.0,87,0.00,,,0.00,,2013-07-18 06:01:00,
2013-07-18 02:12:00,77.0,73.0,30.01,North,349,0.0,0.0,87,0.00,,,0.00,,2013-07-18 06:12:00,
2013-07-18 02:22:00,77.0,73.0,30.01,North,349,0.0,0.0,88,0.00,,,0.00,,2013-07-18 06:22:00,
2013-07-18 02:32:00,76.0,72.0,30.01,North,349,0.0,0.0,88,0.00,,,0.00,,2013-07-18 06:32:00,
2013-07-18 02:43:00,76.0,72.0,30.00,North,349,0.0,0.0,88,0.00,,,0.00,,2013-07-18 06:43:00,
2013-07-18 02:52:00,75.0,72.0,29.99,North,349,0.0,0.0,89,0.00,,,0.00,,2013-07-18 06:52:00,
2013-07-18 03:01:00,75.0,72.0,29.99,North,349,0.0,0.0,90,0.00,,,0.00,,2013-07-18 07:01:00,
2013-07-18 03:12:00,75.0,72.0,29.99,North,349,0.0,0.0,91,0.00,,,0.00,,2013-07-18 07:12:00,
2013-07-18 03:32:00,74.0,72.0,29.98,North,349,0.0,0.0,93,0.00,,,0.00,,2013-07-18 07:32:00,
2013-07-18 03:42:00,74.0,72.0,29.98,North,349,0.0,1.0,93,0.00,,,0.00,,2013-07-18 07:42:00,
2013-07-18 03:52:00,74.0,72.0,29.98,NNW,347,0.0,1.0,93,0.00,,,0.00,,2013-07-18 07:52:00,
2013-07-18 04:01:00,74.0,72.0,29.98,NNW,347,0.0,0.0,94,0.00,,,0.00,,2013-07-18 08:01:00,
2013-07-18 04:11:00,73.0,71.0,29.98,NNW,347,0.0,0.0,94,0.00,,,0.00,,2013-07-18 08:11:00,
2013-07-18 04:21:00,73.0,71.0,29.98,NNW,347,0.0,0.0,95,0.00,,,0.00,,2013-07-18 08:21:00,
2013-07-18 04:32:00,73.0,71.0,29.98,NNW,347,0.0,0.0,95,0.00,,,0.00,,2013-07-18 08:32:00,
2013-07-18 04:42:00,73.0,71.0,29.98,NNW,347,0.0,0.0,95,0.00,,,0.00,,2013-07-18 08:42:00,
2013-07-18 04:51:00,73.0,71.0,29.98,NNW,347,0.0,0.0,95,0.00,,,0.00,,2013-07-18 08:51:00,
2013-07-18 05:01:00,72.0,70.0,29.98,NNW,347,0.0,0.0,95,0.00,,,0.00,,2013-07-18 09:01:00,
2013-07-18 05:11:00,72.0,71.0,29.99,NNW,347,0.0,0.0,96,0.00,,,0.00,,2013-07-18 09:11:00,
2013-07-18 05:21:00,72.0,71.0,30.00,NNW,347,0.0,0.0,96,0.00,,,0.00,,2013-07-18 09:21:00,
2013-07-18 05:42:00,72.0,71.0,30.00,NNW,347,0.0,0.0,96,0.00,,,0.00,,2013-07-18 09:42:00,
2013-07-18 05:51:00,72.0,71.0,30.00,NNW,347,0.0,0.0,97,0.00,,,0.00,,2013-07-18 09:51:00,
2013-07-18 06:01:00,72.0,71.0,30.00,NNW,347,0.0,0.0,97,0.00,,,0.00,,2013-07-18 10:01:00,
2013-07-18 06:11:00,72.0,71.0,30.00,NNW,347,0.0,0.0,97,0.00,,,0.00,,2013-07-18 10:11:00,
2013-07-18 06:22:00,71.0,70.0,30.00,NNW,347,0.0,0.0,97,0.00,,,0.00,,2013-07-18 10:22:00,
2013-07-18 06:32:00,72.0,71.0,30.01,NNW,347,0.0,0.0,98,0.00,,,0.00,,2013-07-18 10:32:00,
2013-07-18 06:43:00,72.0,71.0,30.01,NNW,347,0.0,0.0,98,0.00,,,0.00,,2013-07-18 10:43:00,
2013-07-18 06:52:00,72.0,71.0,30.01,NNW,347,0.0,0.0,98,0.00,,,0.00,,2013-07-18 10:52:00,
2013-07-18 07:11:00,72.0,71.0,30.02,NNW,347,0.0,0.0,98,0.00,,,0.00,,2013-07-18 11:11:00,
2013-07-18 07:52:00,74.0,74.0,30.03,NNW,347,0.0,0.0,99,0.00,,,0.00,,2013-07-18 11:52:00,
2013-07-18 08:02:00,74.0,73.0,30.03,NNW,347,0.0,1.0,98,0.00,,,0.00,,2013-07-18 12:02:00,
2013-07-18 08:11:00,75.0,74.0,30.03,NNW,342,0.0,1.0,96,0.00,,,0.00,,2013-07-18 12:11:00,
2013-07-18 08:22:00,76.0,74.0,30.03,NNW,342,0.0,0.0,93,0.00,,,0.00,,2013-07-18 12:22:00,
2013-07-18 08:33:00,76.0,73.0,30.03,NNW,342,0.0,1.0,91,0.00,,,0.00,,2013-07-18 12:33:00,
2013-07-18 08:42:00,77.0,74.0,30.03,NNW,342,0.0,1.0,90,0.00,,,0.00,,2013-07-18 12:42:00,
2013-07-18 08:52:00,78.0,74.0,30.03,NNW,342,0.0,1.0,89,0.00,,,0.00,,2013-07-18 12:52:00,
2013-07-18 09:01:00,78.0,74.0,30.03,NNW,342,0.0,1.0,89,0.00,,,0.00,,2013-07-18 13:01:00,
2013-07-18 09:22:00,80.0,74.0,30.03,NNW,338,0.0,2.0,83,0.00,,,0.00,,2013-07-18 13:22:00,
2013-07-18 09:32:00,81.0,75.0,30.03,WNW,300,0.0,3.0,83,0.00,,,0.00,,2013-07-18 13:32:00,
2013-07-18 09:43:00,82.0,75.0,30.03,WNW,301,1.0,2.0,80,0.00,,,0.00,,2013-07-18 13:43:00,
2013-07-18 10:02:00,84.0,76.0,30.03,WNW,295,1.0,2.0,76,0.00,,,0.00,,2013-07-18 14:02:00,
2013-07-18 10:12:00,85.0,77.0,30.03,WNW,294,1.0,3.0,76,0.00,,,0.00,,2013-07-18 14:12:00,
2013-07-18 10:43:00,87.0,75.0,30.03,WNW,292,1.0,3.0,68,0.00,,,0.00,,2013-07-18 14:43:00,
2013-07-18 11:01:00,88.0,74.0,30.03,WNW,297,0.0,2.0,64,0.00,,,0.00,,2013-07-18 15:01:00,
2013-07-18 11:43:00,90.0,75.0,30.03,WNW,302,0.0,2.0,61,0.00,,,0.00,,2013-07-18 15:43:00,
2013-07-18 11:53:00,91.0,74.0,30.03,WNW,302,0.0,1.0,58,0.00,,,0.00,,2013-07-18 15:53:00,
2013-07-18 14:22:00,97.0,71.0,30.01,WNW,295,1.0,2.0,44,0.00,,,0.00,,2013-07-18 18:22:00,
2013-07-18 14:43:00,96.0,75.0,30.01,WNW,302,0.0,1.0,52,0.00,,,0.00,,2013-07-18 18:43:00,
2013-07-18 15:02:00,96.0,75.0,30.00,WNW,302,0.0,2.0,52,0.00,,,0.00,,2013-07-18 19:02:00,
2013-07-18 15:11:00,95.0,76.0,29.99,WNW,300,1.0,3.0,54,0.00,,,0.00,,2013-07-18 19:11:00,
2013-07-18 16:32:00,90.0,76.0,29.98,NNW,345,1.0,4.0,63,0.00,,,0.00,,2013-07-18 20:32:00,
2013-07-18 16:43:00,88.0,75.0,29.98,WNW,297,0.0,4.0,66,0.00,,,0.00,,2013-07-18 20:43:00,
2013-07-18 16:52:00,88.0,76.0,29.98,NW,325,0.0,2.0,67,0.00,,,0.00,,2013-07-18 20:52:00,
2013-07-18 17:01:00,88.0,77.0,29.98,WNW,302,0.0,1.0,71,0.00,,,0.00,,2013-07-18 21:01:00,
2013-07-18 17:11:00,88.0,76.0,29.99,WNW,297,1.0,3.0,68,0.00,,,0.00,,2013-07-18 21:11:00,
2013-07-18 17:22:00,86.0,75.0,29.99,WNW,302,0.0,2.0,70,0.00,,,0.00,,2013-07-18 21:22:00,
2013-07-18 17:32:00,85.0,75.0,29.98,WNW,297,1.0,3.0,73,0.00,,,0.00,,2013-07-18 21:32:00,
2013-07-18 17:43:00,84.0,76.0,29.98,WNW,302,0.0,1.0,76,0.00,,,0.00,,2013-07-18 21:43:00,
2013-07-18 17:52:00,83.0,75.0,29.97,WNW,302,0.0,2.0,78,0.00,,,0.00,,2013-07-18 21:52:00,
2013-07-18 18:01:00,83.0,76.0,29.97,WNW,301,0.0,2.0,79,0.00,,,0.00,,2013-07-18 22:01:00,
2013-07-18 18:11:00,82.0,74.0,29.97,NW,304,0.0,1.0,76,0.00,,,0.00,,2013-07-18 22:11:00,
2013-07-18 18:22:00,82.0,73.0,29.97,WNW,302,0.0,1.0,75,0.00,,,0.00,,2013-07-18 22:22:00,
2013-07-18 18:32:00,81.0,73.0,29.97,WNW,302,0.0,1.0,77,0.00,,,0.00,,2013-07-18 22:32:00,
2013-07-18 18:43:00,81.0,74.0,29.97,WNW,302,0.0,0.0,79,0.00,,,0.00,,2013-07-18 22:43:00,
2013-07-18 18:53:00,80.0,73.0,29.97,WNW,300,0.0,3.0,79,0.00,,,0.00,,2013-07-18 22:53:00,
2013-07-18 19:02:00,80.0,72.0,29.98,WNW,301,0.0,1.0,78,0.00,,,0.00,,2013-07-18 23:02:00,
2013-07-18 19:11:00,79.0,72.0,29.98,WNW,300,0.0,1.0,78,0.00,,,0.00,,2013-07-18 23:11:00,
2013-07-18 19:22:00,79.0,72.0,29.99,WNW,298,0.0,3.0,78,0.00,,,0.00,,2013-07-18 23:22:00,
2013-07-18 19:42:00,78.0,71.0,29.99,WNW,300,0.0,1.0,79,0.00,,,0.00,,2013-07-18 23:42:00,
2013-07-18 19:52:00,77.0,70.0,29.99,WNW,297,0.0,0.0,80,0.00,,,0.00,,2013-07-18 23:52:00,
2013-07-18 20:01:00,77.0,71.0,29.99,WNW,300,0.0,0.0,81,0.00,,,0.00,,2013-07-19 00:01:00,
2013-07-18 20:11:00,77.0,71.0,30.01,WNW,300,0.0,2.0,82,0.00,,,0.00,,2013-07-19 00:11:00,
2013-07-18 20:22:00,77.0,71.0,30.00,WNW,300,0.0,1.0,83,0.00,,,0.00,,2013-07-19 00:22:00,
2013-07-18 20:32:00,77.0,72.0,29.99,WNW,300,0.0,2.0,84,0.00,,,0.00,,2013-07-19 00:32:00,
2013-07-18 20:43:00,76.0,71.0,29.98,WNW,300,0.0,0.0,84,0.00,,,0.00,,2013-07-19 00:43:00,
2013-07-18 20:52:00,76.0,71.0,29.99,WNW,300,0.0,1.0,85,0.00,,,0.00,,2013-07-19 00:52:00,
2013-07-18 21:01:00,75.0,71.0,29.98,WNW,299,0.0,0.0,86,0.00,,,0.00,,2013-07-19 01:01:00,
2013-07-18 21:11:00,75.0,71.0,29.98,WNW,299,0.0,0.0,86,0.00,,,0.00,,2013-07-19 01:11:00,
2013-07-18 21:42:00,74.0,70.0,29.99,WNW,300,0.0,0.0,88,0.00,,,0.00,,2013-07-19 01:42:00,
2013-07-18 21:52:00,74.0,70.0,29.99,WNW,299,0.0,0.0,88,0.00,,,0.00,,2013-07-19 01:52:00,
2013-07-18 22:22:00,75.0,72.0,30.01,WNW,298,0.0,1.0,89,0.00,,,0.00,,2013-07-19 02:22:00,
2013-07-18 22:32:00,75.0,72.0,30.00,WNW,298,0.0,0.0,90,0.00,,,0.00,,2013-07-19 02:32:00,
2013-07-18 22:42:00,75.0,72.0,30.00,WNW,298,0.0,0.0,91,0.00,,,0.00,,2013-07-19 02:42:00,
2013-07-18 22:52:00,74.0,72.0,30.00,WNW,298,0.0,0.0,92,0.00,,,0.00,,2013-07-19 02:52:00,
2013-07-18 23:52:00,73.0,71.0,29.97,WNW,298,0.0,0.0,94,0.00,,,0.00,,2013-07-19 03:52:00,